Cluster Springs, Virginia
Current Conditions -  °F | °C
As of 4:55 AM on Sunday 26 Oct 2014 (Local Time) from KW78 Reporting Station
Clear Clear  
Wind Chill: 61°   Ceiling: Unl
Heat Index: 61°   Visibility: 10mi
Dew Point: 50°   Wind: 9mph
Humidity: 66%   Direction: 260°W
Pressure: 29.79"   Gusts: 18mph
Location:  36.62°N, 78.92°W
Report Text: KW78 260855Z AUTO 26008G16KT 10SM CLR 16/10 A2979 RMK AO1 T01630100
Loading
Personal Weather Stations






























Interactive Weather Map
Tropical Storm Tracking
New forecast layout! Learn more

10-Day Weather Forecast

Advertisements
Track Severe Weather on mobile